sensor_id;sensor_type;location;lat;lon;timestamp;pressure;altitude;pressure_sealevel;temperature;humidity
48517;BME280;34310;51.904;4.256;2023-07-16T00:01:38;100820.28;;;24.86;52.18
48517;BME280;34310;51.904;4.256;2023-07-16T00:04:04;100827.31;;;24.86;52.05
48517;BME280;34310;51.904;4.256;2023-07-16T00:06:31;100815.84;;;24.85;52.17
48517;BME280;34310;51.904;4.256;2023-07-16T00:08:59;100806.97;;;24.77;51.93
48517;BME280;34310;51.904;4.256;2023-07-16T00:11:25;100820.25;;;24.83;52.18
48517;BME280;34310;51.904;4.256;2023-07-16T00:13:52;100814.06;;;24.83;52.09
48517;BME280;34310;51.904;4.256;2023-07-16T00:16:18;100827.28;;;24.83;52.07
48517;BME280;34310;51.904;4.256;2023-07-16T00:18:45;100819.34;;;24.83;52.41
48517;BME280;34310;51.904;4.256;2023-07-16T00:21:11;100824.63;;;24.81;52.39
48517;BME280;34310;51.904;4.256;2023-07-16T00:23:38;100825.47;;;24.80;52.22
48517;BME280;34310;51.904;4.256;2023-07-16T00:26:04;100814.91;;;24.80;52.04
48517;BME280;34310;51.904;4.256;2023-07-16T00:28:31;100815.78;;;24.79;52.20
48517;BME280;34310;51.904;4.256;2023-07-16T00:30:57;100825.44;;;24.77;52.28
48517;BME280;34310;51.904;4.256;2023-07-16T00:33:24;100808.72;;;24.78;52.07
48517;BME280;34310;51.904;4.256;2023-07-16T00:35:51;100821.00;;;24.75;52.04
48517;BME280;34310;51.904;4.256;2023-07-16T00:38:17;100820.16;;;24.76;52.00
48517;BME280;34310;51.904;4.256;2023-07-16T00:40:45;100823.66;;;24.75;52.28
48517;BME280;34310;51.904;4.256;2023-07-16T00:43:11;100828.91;;;24.73;52.20
48517;BME280;34310;51.904;4.256;2023-07-16T00:45:39;100838.63;;;24.74;52.17
48517;BME280;34310;51.904;4.256;2023-07-16T00:48:06;100831.53;;;24.71;52.24
48517;BME280;34310;51.904;4.256;2023-07-16T00:50:36;100826.25;;;24.71;52.06
48517;BME280;34310;51.904;4.256;2023-07-16T00:53:03;100831.53;;;24.71;52.18
48517;BME280;34310;51.904;4.256;2023-07-16T00:55:29;100828.88;;;24.70;52.21
48517;BME280;34310;51.904;4.256;2023-07-16T00:58:01;100833.28;;;24.69;52.17
48517;BME280;34310;51.904;4.256;2023-07-16T01:00:27;100819.19;;;24.69;52.32
48517;BME280;34310;51.904;4.256;2023-07-16T01:02:54;100833.25;;;24.68;52.38
48517;BME280;34310;51.904;4.256;2023-07-16T01:05:22;100837.66;;;24.67;52.29
48517;BME280;34310;51.904;4.256;2023-07-16T01:07:58;100835.00;;;24.66;52.34
48517;BME280;34310;51.904;4.256;2023-07-16T01:10:28;100834.97;;;24.64;52.28
48517;BME280;34310;51.904;4.256;2023-07-16T01:12:56;100834.09;;;24.64;52.18
48517;BME280;34310;51.904;4.256;2023-07-16T01:15:23;100830.56;;;24.63;52.08
48517;BME280;34310;51.904;4.256;2023-07-16T01:17:49;100828.78;;;24.62;52.14
48517;BME280;34310;51.904;4.256;2023-07-16T01:20:16;100825.22;;;24.59;52.07
48517;BME280;34310;51.904;4.256;2023-07-16T01:31:01;100829.63;;;24.60;52.24
48517;BME280;34310;51.904;4.256;2023-07-16T01:33:28;100834.91;;;24.58;52.44
48517;BME280;34310;51.904;4.256;2023-07-16T01:35:56;100829.56;;;24.57;52.20
48517;BME280;34310;51.904;4.256;2023-07-16T01:38:24;100819.81;;;24.51;52.40
48517;BME280;34310;51.904;4.256;2023-07-16T01:40:50;100833.06;;;24.56;52.16
48517;BME280;34310;51.904;4.256;2023-07-16T01:43:17;100821.59;;;24.54;52.32
48517;BME280;34310;51.904;4.256;2023-07-16T01:45:43;100827.75;;;24.53;52.23
48517;BME280;34310;51.904;4.256;2023-07-16T01:48:21;100840.09;;;24.54;52.19
48517;BME280;34310;51.904;4.256;2023-07-16T01:50:50;100832.97;;;24.48;52.16
48517;BME280;34310;51.904;4.256;2023-07-16T01:53:17;100835.66;;;24.53;52.18
48517;BME280;34310;51.904;4.256;2023-07-16T01:55:43;100842.69;;;24.52;52.24
48517;BME280;34310;51.904;4.256;2023-07-16T01:58:09;100835.66;;;24.51;52.18
48517;BME280;34310;51.904;4.256;2023-07-16T02:00:36;100831.25;;;24.50;52.26
48517;BME280;34310;51.904;4.256;2023-07-16T02:03:03;100830.34;;;24.50;52.29
48517;BME280;34310;51.904;4.256;2023-07-16T02:05:29;100830.34;;;24.48;52.29
48517;BME280;34310;51.904;4.256;2023-07-16T02:07:56;100827.66;;;24.45;52.16
48517;BME280;34310;51.904;4.256;2023-07-16T02:10:22;100828.53;;;24.46;52.37
48517;BME280;34310;51.904;4.256;2023-07-16T02:12:49;100830.31;;;24.47;52.23
48517;BME280;34310;51.904;4.256;2023-07-16T02:15:15;100829.44;;;24.46;52.09
48517;BME280;34310;51.904;4.256;2023-07-16T02:17:42;100824.09;;;24.43;52.09
48517;BME280;34310;51.904;4.256;2023-07-16T02:20:09;100832.03;;;24.45;52.33
48517;BME280;34310;51.904;4.256;2023-07-16T02:22:36;100829.38;;;24.42;52.14
48517;BME280;34310;51.904;4.256;2023-07-16T02:25:03;100835.56;;;24.44;52.11
48517;BME280;34310;51.904;4.256;2023-07-16T02:27:29;100826.72;;;24.40;52.24
48517;BME280;34310;51.904;4.256;2023-07-16T02:29:56;100839.00;;;24.38;52.31
48517;BME280;34310;51.904;4.256;2023-07-16T02:32:22;100842.53;;;24.40;52.36
48517;BME280;34310;51.904;4.256;2023-07-16T02:34:49;100837.25;;;24.40;52.28
48517;BME280;34310;51.904;4.256;2023-07-16T02:37:16;100842.53;;;24.38;52.38
48517;BME280;34310;51.904;4.256;2023-07-16T02:39:44;100852.19;;;24.38;52.25
48517;BME280;34310;51.904;4.256;2023-07-16T02:42:11;100846.00;;;24.36;52.35
48517;BME280;34310;51.904;4.256;2023-07-16T02:44:37;100845.13;;;24.37;52.30
48517;BME280;34310;51.904;4.256;2023-07-16T02:47:04;100838.97;;;24.36;52.31
48517;BME280;34310;51.904;4.256;2023-07-16T02:49:30;100838.94;;;24.35;52.18
48517;BME280;34310;51.904;4.256;2023-07-16T02:51:57;100844.22;;;24.33;52.10
48517;BME280;34310;51.904;4.256;2023-07-16T02:54:23;100835.38;;;24.31;52.51
48517;BME280;34310;51.904;4.256;2023-07-16T02:56:50;100842.47;;;24.34;52.23
48517;BME280;34310;51.904;4.256;2023-07-16T02:59:16;100856.50;;;24.31;52.26
48517;BME280;34310;51.904;4.256;2023-07-16T03:01:42;100853.88;;;24.33;52.25
48517;BME280;34310;51.904;4.256;2023-07-16T03:04:09;100853.00;;;24.32;52.24
48517;BME280;34310;51.904;4.256;2023-07-16T03:06:36;100855.63;;;24.32;52.36
48517;BME280;34310;51.904;4.256;2023-07-16T03:09:03;100859.13;;;24.31;52.44
48517;BME280;34310;51.904;4.256;2023-07-16T03:11:29;100851.97;;;24.27;52.47
48517;BME280;34310;51.904;4.256;2023-07-16T03:13:56;100857.34;;;24.29;52.26
48517;BME280;34310;51.904;4.256;2023-07-16T03:16:22;100870.53;;;24.29;52.57
48517;BME280;34310;51.904;4.256;2023-07-16T03:18:49;100868.72;;;24.28;52.58
48517;BME280;34310;51.904;4.256;2023-07-16T03:21:15;100857.22;;;24.26;52.30
48517;BME280;34310;51.904;4.256;2023-07-16T03:23:42;100864.25;;;24.25;52.38
48517;BME280;34310;51.904;4.256;2023-07-16T03:26:08;100866.03;;;24.26;52.45
48517;BME280;34310;51.904;4.256;2023-07-16T03:28:35;100868.66;;;24.25;52.39
48517;BME280;34310;51.904;4.256;2023-07-16T03:31:01;100873.94;;;24.25;52.38
48517;BME280;34310;51.904;4.256;2023-07-16T03:33:28;100877.38;;;24.21;52.33
48517;BME280;34310;51.904;4.256;2023-07-16T03:35:54;100880.06;;;24.24;52.54
48517;BME280;34310;51.904;4.256;2023-07-16T03:38:21;100879.13;;;24.20;52.27
48517;BME280;34310;51.904;4.256;2023-07-16T03:40:49;100880.91;;;24.21;52.55
48517;BME280;34310;51.904;4.256;2023-07-16T03:43:16;100888.81;;;24.21;52.55
48517;BME280;34310;51.904;4.256;2023-07-16T03:45:43;100887.94;;;24.21;52.53
48517;BME280;34310;51.904;4.256;2023-07-16T03:48:09;100894.06;;;24.18;52.40
48517;BME280;34310;51.904;4.256;2023-07-16T03:50:36;100890.53;;;24.18;52.24
48517;BME280;34310;51.904;4.256;2023-07-16T03:53:03;100896.69;;;24.18;52.36
48517;BME280;34310;51.904;4.256;2023-07-16T03:55:30;100905.50;;;24.19;52.49
48517;BME280;34310;51.904;4.256;2023-07-16T03:57:56;100906.31;;;24.16;52.56
48517;BME280;34310;51.904;4.256;2023-07-16T04:00:23;100916.91;;;24.18;52.56
48517;BME280;34310;51.904;4.256;2023-07-16T04:02:49;100907.22;;;24.17;52.64
48517;BME280;34310;51.904;4.256;2023-07-16T04:05:16;100912.50;;;24.17;52.48
48517;BME280;34310;51.904;4.256;2023-07-16T04:07:42;100913.34;;;24.16;52.65
48517;BME280;34310;51.904;4.256;2023-07-16T04:10:09;100915.09;;;24.15;52.39
48517;BME280;34310;51.904;4.256;2023-07-16T04:12:35;100912.44;;;24.14;52.59
48517;BME280;34310;51.904;4.256;2023-07-16T04:15:07;100910.63;;;24.09;52.57
48517;BME280;34310;51.904;4.256;2023-07-16T04:17:33;100920.34;;;24.12;52.72
48517;BME280;34310;51.904;4.256;2023-07-16T04:20:00;100922.06;;;24.10;52.71
48517;BME280;34310;51.904;4.256;2023-07-16T04:22:27;100930.00;;;24.12;52.45
48517;BME280;34310;51.904;4.256;2023-07-16T04:24:53;100931.72;;;24.09;52.38
48517;BME280;34310;51.904;4.256;2023-07-16T04:27:20;100927.34;;;24.10;52.53
48517;BME280;34310;51.904;4.256;2023-07-16T04:29:46;100937.88;;;24.10;52.58
48517;BME280;34310;51.904;4.256;2023-07-16T04:32:13;100941.38;;;24.09;52.49
48517;BME280;34310;51.904;4.256;2023-07-16T04:34:39;100950.16;;;24.08;52.52
48517;BME280;34310;51.904;4.256;2023-07-16T04:37:05;100942.25;;;24.08;52.79
48517;BME280;34310;51.904;4.256;2023-07-16T04:39:32;100938.72;;;24.07;52.55
48517;BME280;34310;51.904;4.256;2023-07-16T04:41:58;100941.34;;;24.06;52.66
48517;BME280;34310;51.904;4.256;2023-07-16T04:44:25;100951.00;;;24.05;52.43
48517;BME280;34310;51.904;4.256;2023-07-16T04:46:51;100943.09;;;24.05;52.50
48517;BME280;34310;51.904;4.256;2023-07-16T04:49:18;100943.06;;;24.04;52.61
48517;BME280;34310;51.904;4.256;2023-07-16T04:51:45;100946.53;;;24.01;52.56
48517;BME280;34310;51.904;4.256;2023-07-16T04:54:11;100941.31;;;24.04;52.66
48517;BME280;34310;51.904;4.256;2023-07-16T04:56:38;100950.09;;;24.03;52.68
48517;BME280;34310;51.904;4.256;2023-07-16T04:59:04;100951.84;;;24.03;52.40
48517;BME280;34310;51.904;4.256;2023-07-16T05:01:30;100949.16;;;24.00;52.58
48517;BME280;34310;51.904;4.256;2023-07-16T05:03:57;100961.47;;;24.01;52.60
48517;BME280;34310;51.904;4.256;2023-07-16T05:06:23;100963.16;;;23.99;52.62
48517;BME280;34310;51.904;4.256;2023-07-16T05:08:50;100964.13;;;24.02;52.73
48517;BME280;34310;51.904;4.256;2023-07-16T05:11:16;100971.16;;;24.02;52.69
48517;BME280;34310;51.904;4.256;2023-07-16T05:13:43;100961.47;;;24.01;52.66
48517;BME280;34310;51.904;4.256;2023-07-16T05:16:09;100964.03;;;23.98;52.55
48517;BME280;34310;51.904;4.256;2023-07-16T05:18:36;100973.78;;;24.00;52.74
48517;BME280;34310;51.904;4.256;2023-07-16T05:21:02;100979.06;;;24.00;52.74
48517;BME280;34310;51.904;4.256;2023-07-16T05:23:29;100971.13;;;24.00;52.56
48517;BME280;34310;51.904;4.256;2023-07-16T05:25:55;100964.03;;;23.98;52.57
48517;BME280;34310;51.904;4.256;2023-07-16T05:28:22;100979.06;;;24.00;52.78
48517;BME280;34310;51.904;4.256;2023-07-16T05:30:57;100975.44;;;23.97;52.71
48517;BME280;34310;51.904;4.256;2023-07-16T05:33:24;100982.50;;;23.99;52.62
48517;BME280;34310;51.904;4.256;2023-07-16T05:35:50;100986.88;;;23.97;52.83
48517;BME280;34310;51.904;4.256;2023-07-16T05:38:17;100984.25;;;23.99;52.79
48517;BME280;34310;51.904;4.256;2023-07-16T05:40:43;100984.25;;;23.99;52.49
48517;BME280;34310;51.904;4.256;2023-07-16T05:43:10;100985.13;;;23.98;52.70
48517;BME280;34310;51.904;4.256;2023-07-16T05:45:37;100982.50;;;23.98;52.44
48517;BME280;34310;51.904;4.256;2023-07-16T05:48:03;100997.41;;;23.97;52.80
48517;BME280;34310;51.904;4.256;2023-07-16T05:50:30;100992.16;;;23.97;52.59
48517;BME280;34310;51.904;4.256;2023-07-16T05:52:56;100999.16;;;23.95;52.70
48517;BME280;34310;51.904;4.256;2023-07-16T05:55:23;101003.56;;;23.96;52.76
48517;BME280;34310;51.904;4.256;2023-07-16T05:57:50;100994.69;;;23.93;52.73
48517;BME280;34310;51.904;4.256;2023-07-16T06:00:17;101016.75;;;23.96;52.69
48517;BME280;34310;51.904;4.256;2023-07-16T06:02:43;101004.44;;;23.97;52.69
48517;BME280;34310;51.904;4.256;2023-07-16T06:05:10;101012.31;;;23.94;52.64
48517;BME280;34310;51.904;4.256;2023-07-16T06:07:36;101033.44;;;23.95;52.67
48517;BME280;34310;51.904;4.256;2023-07-16T06:10:03;101023.78;;;23.96;52.59
48517;BME280;34310;51.904;4.256;2023-07-16T06:12:29;101028.09;;;23.92;52.48
48517;BME280;34310;51.904;4.256;2023-07-16T06:14:56;101036.03;;;23.94;52.52
48517;BME280;34310;51.904;4.256;2023-07-16T06:17:22;101028.13;;;23.94;52.37
48517;BME280;34310;51.904;4.256;2023-07-16T06:19:49;101029.00;;;23.94;52.64
48517;BME280;34310;51.904;4.256;2023-07-16T06:22:15;101040.44;;;23.95;52.39
48517;BME280;34310;51.904;4.256;2023-07-16T06:24:42;101036.03;;;23.94;52.61
48517;BME280;34310;51.904;4.256;2023-07-16T06:27:08;101050.13;;;23.94;52.45
48517;BME280;34310;51.904;4.256;2023-07-16T06:29:35;101034.28;;;23.94;52.51
48517;BME280;34310;51.904;4.256;2023-07-16T06:32:01;101039.50;;;23.91;52.44
48517;BME280;34310;51.904;4.256;2023-07-16T06:34:28;101043.06;;;23.93;52.52
48517;BME280;34310;51.904;4.256;2023-07-16T06:36:54;101059.78;;;23.94;52.54
48517;BME280;34310;51.904;4.256;2023-07-16T06:39:21;101050.94;;;23.92;52.56
48517;BME280;34310;51.904;4.256;2023-07-16T06:41:47;101056.25;;;23.93;52.62
48517;BME280;34310;51.904;4.256;2023-07-16T06:44:14;101065.94;;;23.94;52.57
48517;BME280;34310;51.904;4.256;2023-07-16T06:46:40;101059.75;;;23.92;52.65
48517;BME280;34310;51.904;4.256;2023-07-16T06:49:07;101065.06;;;23.94;52.65
48517;BME280;34310;51.904;4.256;2023-07-16T06:51:34;101054.50;;;23.94;52.46
48517;BME280;34310;51.904;4.256;2023-07-16T06:54:00;101061.50;;;23.92;52.67
48517;BME280;34310;51.904;4.256;2023-07-16T06:56:27;101068.53;;;23.93;52.53
48517;BME280;34310;51.904;4.256;2023-07-16T06:58:53;101074.75;;;23.95;52.51
48517;BME280;34310;51.904;4.256;2023-07-16T07:01:20;101072.06;;;23.93;52.57
48517;BME280;34310;51.904;4.256;2023-07-16T07:03:47;101076.50;;;23.94;52.64
48517;BME280;34310;51.904;4.256;2023-07-16T07:06:14;101081.78;;;23.96;52.49
48517;BME280;34310;51.904;4.256;2023-07-16T07:08:41;101078.25;;;23.95;52.58
48517;BME280;34310;51.904;4.256;2023-07-16T07:11:07;101072.94;;;23.92;52.48
48517;BME280;34310;51.904;4.256;2023-07-16T07:13:34;101089.69;;;23.96;52.71
48517;BME280;34310;51.904;4.256;2023-07-16T07:16:00;101093.22;;;23.96;52.66
48517;BME280;34310;51.904;4.256;2023-07-16T07:18:27;101089.69;;;23.96;52.59
48517;BME280;34310;51.904;4.256;2023-07-16T07:20:53;101081.75;;;23.94;52.51
48517;BME280;34310;51.904;4.256;2023-07-16T07:23:20;101092.38;;;23.97;52.62
48517;BME280;34310;51.904;4.256;2023-07-16T07:25:50;101092.34;;;23.96;52.78
48517;BME280;34310;51.904;4.256;2023-07-16T07:28:18;101091.47;;;23.97;52.80
48517;BME280;34310;51.904;4.256;2023-07-16T07:30:45;101101.16;;;23.98;52.76
48517;BME280;34310;51.904;4.256;2023-07-16T07:33:12;101094.97;;;23.96;52.63
48517;BME280;34310;51.904;4.256;2023-07-16T07:35:39;101091.47;;;23.97;52.49
48517;BME280;34310;51.904;4.256;2023-07-16T07:38:05;101095.91;;;23.98;52.72
48517;BME280;34310;51.904;4.256;2023-07-16T07:40:32;101105.56;;;23.97;52.83
48517;BME280;34310;51.904;4.256;2023-07-16T07:42:58;101100.28;;;23.97;52.77
48517;BME280;34310;51.904;4.256;2023-07-16T07:45:25;101112.56;;;23.97;52.43
48517;BME280;34310;51.904;4.256;2023-07-16T07:47:52;101124.94;;;23.99;52.81
48517;BME280;34310;51.904;4.256;2023-07-16T07:50:18;101122.31;;;23.99;52.78
48517;BME280;34310;51.904;4.256;2023-07-16T07:52:45;101131.06;;;23.98;52.51
48517;BME280;34310;51.904;4.256;2023-07-16T07:55:11;101124.03;;;23.97;52.69
48517;BME280;34310;51.904;4.256;2023-07-16T07:57:38;101126.69;;;23.99;52.79
48517;BME280;34310;51.904;4.256;2023-07-16T08:00:05;101137.31;;;24.00;52.41
48517;BME280;34310;51.904;4.256;2023-07-16T08:02:32;101144.34;;;24.01;52.45
48517;BME280;34310;51.904;4.256;2023-07-16T08:04:58;101136.34;;;23.98;52.75
48517;BME280;34310;51.904;4.256;2023-07-16T08:07:29;101137.31;;;24.00;52.55
48517;BME280;34310;51.904;4.256;2023-07-16T08:09:55;101137.34;;;24.02;52.49
48517;BME280;34310;51.904;4.256;2023-07-16T08:12:22;101151.38;;;24.01;52.48
48517;BME280;34310;51.904;4.256;2023-07-16T08:14:48;101133.72;;;23.98;52.53
48517;BME280;34310;51.904;4.256;2023-07-16T08:17:15;101143.38;;;23.98;52.64
48517;BME280;34310;51.904;4.256;2023-07-16T08:19:41;101138.97;;;23.98;52.62
48517;BME280;34310;51.904;4.256;2023-07-16T08:22:08;101122.25;;;23.96;52.79
48517;BME280;34310;51.904;4.256;2023-07-16T08:24:34;101144.38;;;24.03;52.71
48517;BME280;34310;51.904;4.256;2023-07-16T08:27:01;101145.28;;;24.03;52.49
48517;BME280;34310;51.904;4.256;2023-07-16T08:29:28;101151.44;;;24.04;52.52
48517;BME280;34310;51.904;4.256;2023-07-16T08:31:54;101161.09;;;24.03;52.65
48517;BME280;34310;51.904;4.256;2023-07-16T08:34:21;101159.34;;;24.04;52.39
48517;BME280;34310;51.904;4.256;2023-07-16T08:36:47;101154.88;;;24.00;52.60
48517;BME280;34310;51.904;4.256;2023-07-16T08:39:14;101167.25;;;24.04;52.51
48517;BME280;34310;51.904;4.256;2023-07-16T08:41:41;101165.50;;;24.03;52.75
48517;BME280;34310;51.904;4.256;2023-07-16T08:44:07;101171.69;;;24.05;52.42
48517;BME280;34310;51.904;4.256;2023-07-16T08:46:34;101178.72;;;24.04;52.58
48517;BME280;34310;51.904;4.256;2023-07-16T08:49:02;101173.44;;;24.04;52.46
48517;BME280;34310;51.904;4.256;2023-07-16T08:51:30;101177.84;;;24.05;52.37
48517;BME280;34310;51.904;4.256;2023-07-16T08:53:56;101178.75;;;24.06;52.30
48517;BME280;34310;51.904;4.256;2023-07-16T08:56:23;101176.09;;;24.06;52.55
48517;BME280;34310;51.904;4.256;2023-07-16T08:58:50;101178.75;;;24.06;52.64
48517;BME280;34310;51.904;4.256;2023-07-16T09:01:20;101168.13;;;24.03;52.69
48517;BME280;34310;51.904;4.256;2023-07-16T09:03:49;101184.94;;;24.08;52.72
48517;BME280;34310;51.904;4.256;2023-07-16T09:06:16;101189.31;;;24.07;52.50
48517;BME280;34310;51.904;4.256;2023-07-16T09:08:43;101189.31;;;24.07;52.40
48517;BME280;34310;51.904;4.256;2023-07-16T09:11:13;101184.91;;;24.06;52.58
48517;BME280;34310;51.904;4.256;2023-07-16T09:13:44;101183.13;;;24.05;52.45
48517;BME280;34310;51.904;4.256;2023-07-16T09:16:10;101191.97;;;24.07;52.47
48517;BME280;34310;51.904;4.256;2023-07-16T09:18:39;101190.22;;;24.08;52.48
48517;BME280;34310;51.904;4.256;2023-07-16T09:21:06;101187.59;;;24.09;52.51
48517;BME280;34310;51.904;4.256;2023-07-16T09:23:33;101196.41;;;24.10;52.42
48517;BME280;34310;51.904;4.256;2023-07-16T09:26:00;101191.13;;;24.10;52.38
48517;BME280;34310;51.904;4.256;2023-07-16T09:28:27;101189.31;;;24.07;52.38
48517;BME280;34310;51.904;4.256;2023-07-16T09:30:53;101200.78;;;24.09;52.53
48517;BME280;34310;51.904;4.256;2023-07-16T09:33:22;101203.47;;;24.11;52.40
48517;BME280;34310;51.904;4.256;2023-07-16T09:35:49;101207.00;;;24.12;52.20
48517;BME280;34310;51.904;4.256;2023-07-16T09:38:17;101208.75;;;24.11;52.55
48517;BME280;34310;51.904;4.256;2023-07-16T09:40:44;101201.63;;;24.07;52.45
48517;BME280;34310;51.904;4.256;2023-07-16T09:43:12;101200.81;;;24.11;52.45
48517;BME280;34310;51.904;4.256;2023-07-16T09:45:41;101206.09;;;24.11;52.41
48517;BME280;34310;51.904;4.256;2023-07-16T09:48:07;101201.72;;;24.12;52.58
48517;BME280;34310;51.904;4.256;2023-07-16T09:50:34;101218.44;;;24.12;52.33
48517;BME280;34310;51.904;4.256;2023-07-16T09:53:04;101229.88;;;24.13;52.38
48517;BME280;34310;51.904;4.256;2023-07-16T09:55:32;101236.03;;;24.13;52.31
48517;BME280;34310;51.904;4.256;2023-07-16T09:58:01;101239.47;;;24.09;52.27
48517;BME280;34310;51.904;4.256;2023-07-16T10:00:29;101244.84;;;24.14;52.42
48517;BME280;34310;51.904;4.256;2023-07-16T10:02:57;101247.47;;;24.14;52.29
48517;BME280;34310;51.904;4.256;2023-07-16T10:05:26;101249.22;;;24.13;52.24
48517;BME280;34310;51.904;4.256;2023-07-16T10:07:58;101249.22;;;24.13;52.37
48517;BME280;34310;51.904;4.256;2023-07-16T10:11:02;101256.28;;;24.14;52.45
48517;BME280;34310;51.904;4.256;2023-07-16T10:13:27;101250.09;;;24.12;52.33
48517;BME280;34310;51.904;4.256;2023-07-16T10:15:58;101247.47;;;24.14;52.50
48517;BME280;34310;51.904;4.256;2023-07-16T10:18:31;101252.78;;;24.15;52.32
48517;BME280;34310;51.904;4.256;2023-07-16T10:21:08;101256.25;;;24.13;52.30
48517;BME280;34310;51.904;4.256;2023-07-16T10:23:43;101257.16;;;24.13;52.27
48517;BME280;34310;51.904;4.256;2023-07-16T10:26:11;101257.22;;;24.16;52.39
48517;BME280;34310;51.904;4.256;2023-07-16T10:28:43;101267.81;;;24.19;52.18
48517;BME280;34310;51.904;4.256;2023-07-16T10:31:24;101267.75;;;24.16;52.21
48517;BME280;34310;51.904;4.256;2023-07-16T10:34:17;101264.28;;;24.17;52.44
48517;BME280;34310;51.904;4.256;2023-07-16T10:36:43;101273.94;;;24.17;52.54
48517;BME280;34310;51.904;4.256;2023-07-16T10:39:10;101270.41;;;24.16;52.55
48517;BME280;34310;51.904;4.256;2023-07-16T10:41:37;101274.81;;;24.17;52.34
48517;BME280;34310;51.904;4.256;2023-07-16T10:44:03;101280.09;;;24.17;52.27
48517;BME280;34310;51.904;4.256;2023-07-16T10:46:31;101282.75;;;24.17;52.38
48517;BME280;34310;51.904;4.256;2023-07-16T10:48:58;101281.88;;;24.18;52.44
48517;BME280;34310;51.904;4.256;2023-07-16T10:51:25;101277.44;;;24.16;52.35
48517;BME280;34310;51.904;4.256;2023-07-16T10:53:55;101299.50;;;24.19;52.58
48517;BME280;34310;51.904;4.256;2023-07-16T10:56:22;101310.03;;;24.19;52.50
48517;BME280;34310;51.904;4.256;2023-07-16T10:58:48;101292.34;;;24.14;52.29
48517;BME280;34310;51.904;4.256;2023-07-16T11:01:16;101303.06;;;24.21;52.34
48517;BME280;34310;51.904;4.256;2023-07-16T11:03:42;101303.94;;;24.22;52.32
48517;BME280;34310;51.904;4.256;2023-07-16T11:06:10;101303.91;;;24.20;52.43
48517;BME280;34310;51.904;4.256;2023-07-16T11:08:37;101306.59;;;24.22;52.41
48517;BME280;34310;51.904;4.256;2023-07-16T11:11:03;101309.25;;;24.23;52.41
48517;BME280;34310;51.904;4.256;2023-07-16T11:13:33;101307.50;;;24.24;52.52
48517;BME280;34310;51.904;4.256;2023-07-16T11:16:09;101311.03;;;24.24;52.33
48517;BME280;34310;51.904;4.256;2023-07-16T11:18:36;101304.91;;;24.25;52.50
48517;BME280;34310;51.904;4.256;2023-07-16T11:21:03;101309.28;;;24.25;52.31
48517;BME280;34310;51.904;4.256;2023-07-16T11:23:34;101326.91;;;24.26;52.44
48517;BME280;34310;51.904;4.256;2023-07-16T11:26:04;101322.50;;;24.26;52.48
48517;BME280;34310;51.904;4.256;2023-07-16T11:28:41;101325.16;;;24.26;52.16
48517;BME280;34310;51.904;4.256;2023-07-16T11:31:15;101317.19;;;24.25;52.39
48517;BME280;34310;51.904;4.256;2023-07-16T11:33:43;101319.94;;;24.28;52.17
48517;BME280;34310;51.904;4.256;2023-07-16T11:36:09;101314.66;;;24.28;52.23
48517;BME280;34310;51.904;4.256;2023-07-16T11:38:37;101311.09;;;24.27;52.10
48517;BME280;34310;51.904;4.256;2023-07-16T11:41:04;101325.28;;;24.29;52.38
48517;BME280;34310;51.904;4.256;2023-07-16T11:43:35;101327.03;;;24.29;52.09
48517;BME280;34310;51.904;4.256;2023-07-16T11:46:02;101319.16;;;24.30;52.25
48517;BME280;34310;51.904;4.256;2023-07-16T11:48:29;101320.03;;;24.31;52.18
48517;BME280;34310;51.904;4.256;2023-07-16T11:50:55;101333.19;;;24.29;52.47
48517;BME280;34310;51.904;4.256;2023-07-16T11:53:22;101335.88;;;24.31;52.33
48517;BME280;34310;51.904;4.256;2023-07-16T11:55:48;101324.47;;;24.32;52.48
48517;BME280;34310;51.904;4.256;2023-07-16T11:58:15;101339.44;;;24.33;52.00
48517;BME280;34310;51.904;4.256;2023-07-16T12:00:41;101345.59;;;24.33;52.24
48517;BME280;34310;51.904;4.256;2023-07-16T12:03:08;101342.97;;;24.33;52.17
48517;BME280;34310;51.904;4.256;2023-07-16T12:05:35;101346.50;;;24.34;52.30
48517;BME280;34310;51.904;4.256;2023-07-16T12:08:18;101342.09;;;24.34;52.31
48517;BME280;34310;51.904;4.256;2023-07-16T12:10:45;101351.78;;;24.34;52.22
48517;BME280;34310;51.904;4.256;2023-07-16T12:13:11;101341.25;;;24.35;52.30
48517;BME280;34310;51.904;4.256;2023-07-16T12:15:38;101335.97;;;24.35;52.17
48517;BME280;34310;51.904;4.256;2023-07-16T12:18:04;101338.66;;;24.37;52.27
48517;BME280;34310;51.904;4.256;2023-07-16T12:20:31;101336.91;;;24.37;52.33
48517;BME280;34310;51.904;4.256;2023-07-16T12:22:57;101353.63;;;24.38;52.21
48517;BME280;34310;51.904;4.256;2023-07-16T12:25:24;101355.41;;;24.39;52.33
48517;BME280;34310;51.904;4.256;2023-07-16T12:27:50;101349.28;;;24.40;52.24
48517;BME280;34310;51.904;4.256;2023-07-16T12:30:21;101349.16;;;24.35;52.21
48517;BME280;34310;51.904;4.256;2023-07-16T12:32:47;101341.34;;;24.40;52.40
48517;BME280;34310;51.904;4.256;2023-07-16T12:35:14;101344.91;;;24.42;52.26
48517;BME280;34310;51.904;4.256;2023-07-16T12:37:40;101344.03;;;24.42;52.35
48517;BME280;34310;51.904;4.256;2023-07-16T12:40:07;101351.09;;;24.43;52.42
48517;BME280;34310;51.904;4.256;2023-07-16T12:42:34;101354.63;;;24.43;52.34
48517;BME280;34310;51.904;4.256;2023-07-16T12:45:01;101348.47;;;24.44;52.23
48517;BME280;34310;51.904;4.256;2023-07-16T12:47:28;101366.06;;;24.44;52.33
48517;BME280;34310;51.904;4.256;2023-07-16T12:49:54;101353.75;;;24.44;52.28
48517;BME280;34310;51.904;4.256;2023-07-16T12:52:21;101357.34;;;24.48;52.25
48517;BME280;34310;51.904;4.256;2023-07-16T12:54:47;101366.16;;;24.48;52.35
48517;BME280;34310;51.904;4.256;2023-07-16T12:57:15;101367.06;;;24.49;52.09
48517;BME280;34310;51.904;4.256;2023-07-16T12:59:41;101374.13;;;24.50;52.35